Branchville, NJ

7:10 PM EDT on August 27, 2014 (GMT -0400)
Sussex | Change Station
CLOSE
Current Station
Airport
Location: Sussex,
Elevation: 420 ft
Nearby Weather Stations

Elev 420 ft 41.20 °N, 74.63 °W | Updated 17 minutes ago

Mostly Cloudy
Mostly Cloudy
75 °F
Feels Like 75 °F
N
0
Wind Variable Wind from North

Today
High -- | Low -- °F
--% Chance of Precip.
Yesterday
High -- | Low -- °F
Precip. -- in
6:20 AM 7:39 PM
Waxing Crescent, 5% visible
Pressure 29.89 in
Visibility 10.0 miles
Clouds Mostly Cloudy 4800 ft
Mostly Cloudy 5500 ft
Mostly Cloudy 11000 ft
Dew Point 69 °F
Humidity 82%
Rainfall 0.25 in
Snow Depth Not available.
UV 0 out of 12
Pollen 10.00 out of 12
Air Quality Not available.
Flu Activity Not available.
METAR KFWN 272253Z AUTO 00000KT 10SM BKN048 BKN055 BKN110 24/21 A2990 RMK AO2 RAE42 TSE12 SLP121 P0022 T02390206

More Conditions Fewer Conditions

Pressure 29.89 in
Visibility 10.0 miles
Clouds Mostly Cloudy 4800 ft
Mostly Cloudy 5500 ft
Mostly Cloudy 11000 ft
Dew Point 69 °F
Humidity 82%
Rainfall 0.25 in
Snow Depth Not available.
UV 0 out of 12
Pollen 10.00 out of 12
Air Quality Not available.
Flu Activity Not available.
METAR KFWN 272253Z AUTO 00000KT 10SM BKN048 BKN055 BKN110 24/21 A2990 RMK AO2 RAE42 TSE12 SLP121 P0022 T02390206

More Conditions Fewer Conditions

Nowcast | as of 6:03 PM EDT on August 27, 2014

Scattered showers and isolated thunderstorms will be occurring this evening over the Poconos and far northwest New Jersey. The thunderstorms previously near and west of Sussex in far northwest New Jersey have weakened considerably between 545 PM and 6 PM. Showers should move into or develop in the Poconos between 630 PM and 730 PM. All the showers and isolated thunderstorms will be moving east southeast at about 15 miles an hour.

×

10-Day Weather Forecast

Almanac

Astronomy

Aug. 27, 2014 Rise Set
Actual Time 6:20 AM EDT 7:39 PM EDT
Civil Twilight 5:51 AM EDT 8:08 PM EDT
Nautical Twilight 5:17 AM EDT 8:42 PM EDT
Astronomical Twilight 4:41 AM EDT 9:18 PM EDT
Moon 8:15 AM EDT 8:28 PM EDT
Length of Visible Light 14h 16m
Length of Day
13h 19m
Tomorrow will be 2m 35s shorter.
Waxing Crescent, 5% of the Moon is Illuminated
Today
Waxing Crescent
Sep 2
First Quarter
Sep 8
Full
Sep 15
Last Quarter
Sep 24
New

Today's Extremes

State Highs State Lows

Community

WunderPhotos

Upload Photos

1,747,815 photos uploaded!

Nearby

Snow Depth

Station Depth Elevation
No new snow has been reported.

Earthquake Activity

City Distance Mag. Time & Date
No recent earthquake activity has been reported nearby.
Minimum magnitude displayed is 2.5.

Coastal Water Temperatures

Place Temperature
No Stations Reporting

Nearby Weather Stations